CA-0496 weather

CLOSED CNRL Strip
British Columbia, Canada

Public forecast

Using degrees Celsius for public forecast. Weather courtesy of forecast.io.

METAR (pilot weather report)

Closest report is Dawson Creek Airport, 53.9 nm (99.8 km) NNE. Retrieved 2019/08/21 19:00 UTC (20 minutes ago):

CYDQ 211900Z AUTO 23010KT 180V260 9SM CLR 23/12 A2964 RMK SLP037 DENSITY ALT 3900FT

TAF (pilot weather forecast)

Closest forecast is Dawson Creek Airport, 53.9 nm (99.8 km) NNE. Retrieved 2019/08/21 19:00 UTC (20 minutes ago):

TAF CYDQ 211840Z 2119/2205 14006KT P6SM FEW250 BECMG 2119/2121 22018G28KT FM212100 23018G28KT P6SM SCT060 BKN120 TEMPO 2121/2202 P6SM -SHRA BKN060 BKN120 PROB30 2121/2202 VRB20G30KT 6SM TSRA BKN060CB OVC120 FM220200 25012G22KT P6SM FEW060 FEW120 BECMG 2202/2204 25010KT RMK FCST BASED ON AUTO OBS. NXT FCST BY 220100Z